Cloncurry, Australia
Current Conditions -  °F | °C
As of 12:00 PM on Saturday 20 Dec 2014 (Local Time) from YBMA Reporting Station
Scattered Clouds Scattered Clouds  
Wind Chill: 36°   Ceiling: Unl
Heat Index: 36°   Visibility: 6mi
Dew Point: 11°   Wind: 14mph
Humidity: 22%   Direction: 60°ENE
Pressure: 29.85"   Gusts: NA
Location:  20.7°S, 140.51°E
Report Text: YBMA 200200Z AUTO 06012KT 9999 // SCT095 36/11 Q1011
Loading
Personal Weather Stations






























Interactive Weather Map New forecast layout! Learn more

10-Day Weather Forecast

Advertisements
Track Severe Weather on mobile